Time;durP1;ratioP1;P1;durP2;ratioP2;P2;SDS_P1;SDS_P2;PMS_P1;PMS_P2;Temp;Humidity;BMP_temperature;BMP_pressure;BME280_temperature;BME280_humidity;BME280_pressure;Samples;Min_cycle;Max_cycle;Signal;HPM_P1;HPM_P2
2021/03/11 00:01:20;;;;;;;25.27;13.70;;;6.60;94.80;;;;;;4999889;28;20470;-78
2021/03/11 00:03:45;;;;;;;22.58;11.60;;;6.60;94.80;;;;;;4983468;28;20025;-78
2021/03/11 00:06:11;;;;;;;16.67;9.85;;;6.60;94.80;;;;;;4993014;28;20058;-77
2021/03/11 00:08:36;;;;;;;22.10;11.52;;;6.60;94.70;;;;;;4984544;28;20040;-77
2021/03/11 00:11:02;;;;;;;25.05;13.35;;;6.60;94.70;;;;;;4974883;28;20045;-77
2021/03/11 00:13:28;;;;;;;20.00;10.55;;;6.60;94.60;;;;;;4976998;28;20026;-77
2021/03/11 00:15:53;;;;;;;21.83;12.95;;;6.70;94.80;;;;;;4974561;28;20030;-77
2021/03/11 00:18:20;;;;;;;17.52;8.13;;;6.60;94.70;;;;;;4984954;28;20030;-77
2021/03/11 00:20:46;;;;;;;20.95;11.35;;;6.70;94.70;;;;;;4993702;28;20034;-77
2021/03/11 00:23:12;;;;;;;23.90;10.80;;;6.70;94.60;;;;;;4987249;28;20104;-77
2021/03/11 00:25:37;;;;;;;21.10;10.18;;;6.70;94.60;;;;;;5009830;28;20133;-77
2021/03/11 00:28:07;;;;;;;19.92;11.48;;;6.70;94.60;;;;;;4983416;28;20042;-77
2021/03/11 00:30:32;;;;;;;20.95;10.27;;;6.70;94.60;;;;;;4980395;28;20092;-77
2021/03/11 00:32:59;;;;;;;24.52;14.10;;;6.80;94.50;;;;;;5001989;28;20057;-77
2021/03/11 00:35:24;;;;;;;23.17;11.75;;;6.80;94.40;;;;;;4991303;28;20489;-78
2021/03/11 00:37:50;;;;;;;33.40;14.30;;;6.80;94.30;;;;;;4976416;28;20041;-77
2021/03/11 00:40:17;;;;;;;17.25;9.20;;;6.80;94.30;;;;;;4980480;28;20539;-76
2021/03/11 00:42:42;;;;;;;27.88;12.20;;;6.80;94.40;;;;;;4976576;28;20457;-77
2021/03/11 00:45:08;;;;;;;16.90;8.68;;;6.90;94.30;;;;;;4985910;28;20120;-77
2021/03/11 00:47:34;;;;;;;18.60;10.75;;;6.90;94.60;;;;;;4984537;28;20032;-77
2021/03/11 00:50:00;;;;;;;17.52;10.68;;;6.80;94.70;;;;;;4984669;28;20029;-77
2021/03/11 00:52:25;;;;;;;13.65;7.32;;;6.80;95.00;;;;;;4995483;28;20081;-77
2021/03/11 00:54:51;;;;;;;19.92;12.27;;;6.80;95.00;;;;;;4993939;28;20033;-78
2021/03/11 00:57:17;;;;;;;21.70;13.05;;;6.80;95.10;;;;;;4974673;28;20033;-77
2021/03/11 00:59:42;;;;;;;20.85;11.52;;;6.70;95.30;;;;;;4982733;28;20654;-76
2021/03/11 01:02:08;;;;;;;23.02;13.43;;;6.70;95.40;;;;;;4988143;28;20425;-77
2021/03/11 01:04:33;;;;;;;20.63;10.50;;;6.70;95.70;;;;;;5000836;28;20040;-77
2021/03/11 01:06:59;;;;;;;16.38;8.35;;;6.70;95.80;;;;;;4983671;28;20022;-76
2021/03/11 01:09:24;;;;;;;24.92;14.68;;;6.70;96.00;;;;;;4974382;28;20037;-76
2021/03/11 01:11:50;;;;;;;28.80;15.93;;;6.60;96.00;;;;;;4997041;28;20456;-76
2021/03/11 01:14:15;;;;;;;20.90;9.65;;;6.60;96.10;;;;;;4979153;28;20076;-77
2021/03/11 01:16:44;;;;;;;22.42;11.30;;;6.60;96.20;;;;;;4975901;28;20072;-77
2021/03/11 01:19:10;;;;;;;15.68;8.82;;;6.60;96.00;;;;;;4988188;28;20037;-77
2021/03/11 01:21:35;;;;;;;21.90;13.00;;;6.60;96.30;;;;;;5000883;28;20130;-77
2021/03/11 01:24:01;;;;;;;27.02;11.13;;;6.60;96.40;;;;;;4983833;28;20053;-76
2021/03/11 01:26:26;;;;;;;23.83;13.20;;;6.60;96.40;;;;;;4990880;28;20108;-76
2021/03/11 01:28:52;;;;;;;16.17;10.68;;;6.50;96.60;;;;;;4991396;28;20044;-77
2021/03/11 01:31:18;;;;;;;30.40;15.57;;;6.50;96.60;;;;;;4989765;28;20026;-77
2021/03/11 01:33:43;;;;;;;18.83;10.75;;;6.60;96.60;;;;;;4993346;28;20075;-76
2021/03/11 01:36:09;;;;;;;22.60;13.10;;;6.50;96.50;;;;;;4979396;28;20038;-76
2021/03/11 01:38:34;;;;;;;23.60;10.40;;;6.60;96.60;;;;;;5016641;28;20168;-77
2021/03/11 01:41:00;;;;;;;17.27;9.02;;;6.50;96.60;;;;;;4982138;28;20030;-77
2021/03/11 01:43:25;;;;;;;31.42;17.48;;;6.50;96.60;;;;;;4992362;28;20038;-76
2021/03/11 01:45:51;;;;;;;23.40;12.82;;;6.50;96.60;;;;;;4996186;28;20698;-76
2021/03/11 01:48:16;;;;;;;16.80;8.82;;;6.50;96.70;;;;;;4975913;28;20037;-77
2021/03/11 01:50:42;;;;;;;24.85;12.50;;;6.50;96.70;;;;;;5017118;28;20025;-77
2021/03/11 01:53:08;;;;;;;24.55;14.85;;;6.50;96.60;;;;;;5015504;28;20037;-77
2021/03/11 01:55:34;;;;;;;19.75;11.32;;;6.50;96.60;;;;;;4998073;28;20474;-77
2021/03/11 01:57:59;;;;;;;28.25;12.73;;;6.50;96.60;;;;;;5000681;28;20034;-76
2021/03/11 02:00:25;;;;;;;12.05;7.80;;;6.50;96.50;;;;;;4990369;28;20034;-77
2021/03/11 02:02:51;;;;;;;23.23;13.88;;;6.60;96.50;;;;;;4989916;28;20395;-77
2021/03/11 02:05:17;;;;;;;22.00;11.57;;;6.50;96.40;;;;;;4972249;28;20512;-77
2021/03/11 02:07:42;;;;;;;21.25;12.68;;;6.60;96.30;;;;;;4989348;28;20486;-77
2021/03/11 02:10:09;;;;;;;27.52;13.57;;;6.60;96.30;;;;;;4983342;28;20034;-77
2021/03/11 02:12:53;;;;;;;21.70;11.48;;;6.60;96.20;;;;;;4974996;28;20029;-77
2021/03/11 02:15:30;;;;;;;19.98;9.52;;;6.60;96.10;;;;;;5014732;28;20137;-77
2021/03/11 02:18:13;;;;;;;23.98;11.68;;;6.70;96.00;;;;;;4969714;28;20030;-77
2021/03/11 02:20:58;;;;;;;13.88;7.68;;;6.70;96.00;;;;;;5013797;28;20037;-77
2021/03/11 02:23:35;;;;;;;19.55;9.30;;;6.70;95.90;;;;;;4998102;28;20038;-77
2021/03/11 02:26:20;;;;;;;23.63;10.18;;;6.70;95.80;;;;;;5017405;28;20037;-77
2021/03/11 02:28:58;;;;;;;9.75;5.47;;;6.70;95.80;;;;;;5010765;28;20048;-77
2021/03/11 02:31:24;;;;;;;14.93;8.80;;;6.80;95.70;;;;;;4991687;28;20029;-78
2021/03/11 02:33:51;;;;;;;16.60;8.95;;;6.90;95.60;;;;;;4988917;28;20451;-78
2021/03/11 02:36:16;;;;;;;19.02;9.50;;;6.90;95.60;;;;;;4976630;28;20513;-77
2021/03/11 02:38:42;;;;;;;13.63;7.28;;;6.90;95.60;;;;;;4977181;28;20026;-77
2021/03/11 02:41:07;;;;;;;19.13;8.25;;;7.00;95.40;;;;;;4985266;28;20042;-77
2021/03/11 02:43:33;;;;;;;15.27;5.57;;;6.90;95.40;;;;;;4987234;28;20017;-77
2021/03/11 02:45:58;;;;;;;11.90;7.50;;;7.00;95.30;;;;;;4987224;28;20456;-78
2021/03/11 02:48:24;;;;;;;11.07;6.63;;;7.00;95.30;;;;;;4993581;28;20092;-77
2021/03/11 02:50:49;;;;;;;9.20;5.30;;;7.00;95.40;;;;;;4990898;28;20095;-77
2021/03/11 02:53:15;;;;;;;10.75;6.03;;;7.00;95.30;;;;;;4975758;28;20038;-77
2021/03/11 02:55:41;;;;;;;9.43;5.82;;;7.10;95.30;;;;;;4994689;28;20022;-77
2021/03/11 02:58:08;;;;;;;12.02;5.65;;;7.10;95.40;;;;;;4985953;28;20045;-77
2021/03/11 03:00:34;;;;;;;15.20;6.00;;;7.10;95.30;;;;;;5003740;28;20030;-77
2021/03/11 03:02:59;;;;;;;7.95;4.43;;;7.10;95.30;;;;;;4984019;28;20397;-78
2021/03/11 03:05:27;;;;;;;8.75;4.55;;;7.10;95.40;;;;;;4977713;28;20098;-77
2021/03/11 03:07:52;;;;;;;11.05;4.82;;;7.20;95.40;;;;;;5000736;28;20121;-77
2021/03/11 03:10:21;;;;;;;6.88;4.30;;;7.20;95.30;;;;;;4975086;28;20156;-77
2021/03/11 03:12:47;;;;;;;4.00;2.38;;;7.20;95.40;;;;;;4977803;28;20031;-77
2021/03/11 03:15:13;;;;;;;9.75;3.13;;;7.20;95.30;;;;;;4989650;28;20149;-77
2021/03/11 03:17:39;;;;;;;7.88;3.33;;;7.20;95.40;;;;;;4977460;28;20628;-77
2021/03/11 03:20:06;;;;;;;6.13;3.25;;;7.20;95.40;;;;;;5000387;28;20121;-77
2021/03/11 03:22:31;;;;;;;7.97;3.58;;;7.30;95.40;;;;;;4976744;28;20038;-77
2021/03/11 03:24:57;;;;;;;7.53;4.30;;;7.30;95.40;;;;;;4986609;28;20443;-77
2021/03/11 03:27:22;;;;;;;9.45;3.53;;;7.30;95.40;;;;;;4991678;28;20034;-77
2021/03/11 03:29:49;;;;;;;6.25;4.30;;;7.30;95.50;;;;;;4999770;28;20144;-77
2021/03/11 03:32:14;;;;;;;5.93;3.58;;;7.30;95.50;;;;;;4976367;28;20033;-78
2021/03/11 03:34:40;;;;;;;6.45;2.67;;;7.30;95.70;;;;;;4994441;28;20413;-78
2021/03/11 03:37:05;;;;;;;4.88;2.90;;;7.30;95.80;;;;;;4981124;28;20117;-80
2021/03/11 03:39:31;;;;;;;6.75;3.67;;;7.30;95.80;;;;;;5003478;28;20497;-81
2021/03/11 03:41:57;;;;;;;3.15;1.73;;;7.30;96.00;;;;;;5019061;28;20091;-81
2021/03/11 03:44:25;;;;;;;3.08;1.67;;;7.30;96.00;;;;;;4999844;28;20041;-81
2021/03/11 03:46:50;;;;;;;4.43;2.03;;;7.30;96.00;;;;;;5004342;28;20092;-81
2021/03/11 03:49:16;;;;;;;7.55;3.53;;;7.30;96.20;;;;;;4978967;28;20116;-82
2021/03/11 03:51:48;;;;;;;6.57;3.78;;;7.30;96.30;;;;;;4978382;28;20397;-81
2021/03/11 03:54:21;;;;;;;4.38;2.55;;;7.30;96.40;;;;;;5003847;28;20539;-82
2021/03/11 03:56:56;;;;;;;4.50;3.13;;;7.30;96.50;;;;;;5013848;28;20026;-82
2021/03/11 03:59:26;;;;;;;3.22;2.00;;;7.30;96.80;;;;;;4992057;28;20052;-82
2021/03/11 04:01:54;;;;;;;4.53;2.30;;;7.20;97.00;;;;;;4972128;28;20030;-82
2021/03/11 04:04:19;;;;;;;8.20;5.10;;;7.20;96.90;;;;;;4975945;28;20030;-82
2021/03/11 04:06:45;;;;;;;3.72;2.45;;;7.20;97.00;;;;;;4992809;28;20394;-81
2021/03/11 04:09:12;;;;;;;7.05;2.63;;;7.10;97.10;;;;;;4995983;28;20386;-78
2021/03/11 04:11:37;;;;;;;8.52;5.10;;;7.20;97.10;;;;;;4999409;28;20539;-81
2021/03/11 04:14:03;;;;;;;7.10;3.30;;;7.20;97.30;;;;;;4986301;28;20042;-82
2021/03/11 04:16:29;;;;;;;4.63;2.83;;;7.20;97.40;;;;;;4992865;28;20032;-81
2021/03/11 04:18:58;;;;;;;7.32;4.10;;;7.10;97.50;;;;;;4977858;28;20061;-81
2021/03/11 04:21:24;;;;;;;7.38;4.30;;;7.20;97.60;;;;;;4983846;28;20040;-82
2021/03/11 04:23:49;;;;;;;9.50;5.07;;;7.10;97.60;;;;;;4984245;28;20041;-81
2021/03/11 04:26:15;;;;;;;8.52;4.40;;;7.10;97.70;;;;;;4990823;28;20042;-80
2021/03/11 04:28:40;;;;;;;6.82;4.63;;;7.10;97.70;;;;;;4995302;28;20121;-81
2021/03/11 04:31:06;;;;;;;7.55;4.97;;;7.10;97.70;;;;;;4983296;28;20061;-82
2021/03/11 04:33:32;;;;;;;6.32;4.22;;;7.10;97.80;;;;;;4984023;28;20986;-82
2021/03/11 04:35:57;;;;;;;7.13;5.07;;;7.10;97.70;;;;;;4986031;28;20396;-82
2021/03/11 04:38:23;;;;;;;4.43;2.78;;;7.10;97.60;;;;;;4993305;28;20107;-81
2021/03/11 04:40:49;;;;;;;4.85;2.85;;;7.10;97.70;;;;;;4985510;28;20037;-80
2021/03/11 04:43:14;;;;;;;5.78;3.03;;;7.20;97.60;;;;;;4973629;28;20038;-80
2021/03/11 04:45:42;;;;;;;6.18;3.50;;;7.20;97.60;;;;;;4975493;28;20065;-82
2021/03/11 04:48:08;;;;;;;4.32;3.25;;;7.20;97.60;;;;;;4998985;28;20046;-82
2021/03/11 04:50:39;;;;;;;7.95;4.38;;;7.20;97.50;;;;;;5015633;28;20048;-83
2021/03/11 04:53:05;;;;;;;4.90;3.30;;;7.20;97.50;;;;;;4976112;28;20037;-82
2021/03/11 04:55:30;;;;;;;6.70;4.45;;;7.20;97.50;;;;;;5000800;28;20041;-82
2021/03/11 04:57:56;;;;;;;8.80;5.03;;;7.20;97.40;;;;;;4985930;28;20045;-82
2021/03/11 05:00:21;;;;;;;6.45;3.95;;;7.30;97.40;;;;;;5003271;28;20056;-81
2021/03/11 05:02:47;;;;;;;7.53;4.85;;;7.20;97.40;;;;;;4991784;28;20481;-81
2021/03/11 05:05:13;;;;;;;4.63;3.42;;;7.30;97.40;;;;;;4988954;28;20405;-77
2021/03/11 05:07:38;;;;;;;8.35;4.00;;;7.30;97.30;;;;;;4989503;28;20497;-77
2021/03/11 05:10:04;;;;;;;6.18;3.03;;;7.30;97.20;;;;;;4984278;28;20052;-77
2021/03/11 05:12:30;;;;;;;2.15;1.60;;;7.40;97.10;;;;;;5016551;28;20034;-76
2021/03/11 05:14:56;;;;;;;9.25;4.95;;;7.40;97.10;;;;;;5000131;28;20056;-76
2021/03/11 05:17:21;;;;;;;5.60;2.30;;;7.40;97.30;;;;;;4983604;28;20030;-77
2021/03/11 05:19:47;;;;;;;6.50;4.47;;;7.40;97.20;;;;;;5002015;28;20041;-77
2021/03/11 05:22:12;;;;;;;7.40;4.45;;;7.40;97.30;;;;;;4974171;28;20041;-77
2021/03/11 05:24:38;;;;;;;7.00;4.82;;;7.40;97.60;;;;;;4999334;28;20029;-77
2021/03/11 05:27:04;;;;;;;5.35;2.53;;;7.40;97.50;;;;;;4984031;28;20036;-78
2021/03/11 05:29:43;;;;;;;6.72;4.22;;;7.30;97.40;;;;;;5045138;27;20358;-77
2021/03/11 05:32:08;;;;;;;6.55;3.63;;;7.40;97.60;;;;;;5017089;28;20144;-78
2021/03/11 05:34:34;;;;;;;5.68;3.15;;;7.40;97.60;;;;;;5008691;28;20107;-78
2021/03/11 05:37:01;;;;;;;6.40;2.05;;;7.30;97.70;;;;;;5006859;28;20025;-79
2021/03/11 05:39:27;;;;;;;7.30;4.35;;;7.40;97.80;;;;;;5019319;28;20045;-79
2021/03/11 05:41:53;;;;;;;4.97;3.75;;;7.40;97.90;;;;;;5022988;28;20033;-79
2021/03/11 05:44:18;;;;;;;7.43;4.70;;;7.40;98.00;;;;;;4978120;28;20026;-80
2021/03/11 05:46:44;;;;;;;5.30;2.85;;;7.30;97.90;;;;;;4988086;28;20039;-79
2021/03/11 05:49:09;;;;;;;6.28;3.40;;;7.30;98.10;;;;;;4984208;28;20038;-79
2021/03/11 05:51:36;;;;;;;3.72;2.25;;;7.30;98.00;;;;;;5008968;28;20394;-79
2021/03/11 05:54:02;;;;;;;4.88;3.25;;;7.30;98.30;;;;;;4992325;28;20516;-79
2021/03/11 05:56:27;;;;;;;5.22;2.85;;;7.30;98.20;;;;;;5003417;28;20065;-79
2021/03/11 05:58:57;;;;;;;5.15;2.90;;;7.30;98.20;;;;;;5032934;28;20029;-79
2021/03/11 06:01:25;;;;;;;6.90;4.00;;;7.30;98.20;;;;;;5017977;28;20069;-79
2021/03/11 06:03:55;;;;;;;5.13;2.78;;;7.30;98.20;;;;;;4998551;28;20033;-80
2021/03/11 06:06:21;;;;;;;5.07;2.90;;;7.40;98.30;;;;;;5015141;28;20851;-79
2021/03/11 06:08:47;;;;;;;4.50;2.75;;;7.40;98.20;;;;;;5037725;28;20063;-79
2021/03/11 06:11:13;;;;;;;8.27;3.22;;;7.40;98.20;;;;;;5033828;28;20021;-79
2021/03/11 06:13:39;;;;;;;3.55;2.40;;;7.40;98.20;;;;;;5016907;28;20037;-79
2021/03/11 06:16:07;;;;;;;6.25;2.42;;;7.40;98.30;;;;;;4996263;28;20120;-79
2021/03/11 06:18:33;;;;;;;6.25;3.90;;;7.40;98.30;;;;;;5013765;28;20531;-79
2021/03/11 06:21:01;;;;;;;11.00;4.30;;;7.40;98.20;;;;;;5011633;28;20056;-79
2021/03/11 06:23:30;;;;;;;6.18;3.42;;;7.40;98.40;;;;;;4999944;28;20030;-80
2021/03/11 06:25:56;;;;;;;3.30;2.47;;;7.40;98.40;;;;;;4996824;28;20111;-80
2021/03/11 06:28:50;;;;;;;5.15;3.00;;;7.50;98.50;;;;;;5006731;28;20066;-80
2021/03/11 06:31:25;;;;;;;7.13;3.38;;;7.50;98.50;;;;;;5008169;28;20044;-80
2021/03/11 06:33:53;;;;;;;6.50;4.40;;;7.50;98.60;;;;;;5016006;28;20116;-79
2021/03/11 06:36:23;;;;;;;9.48;4.70;;;7.50;98.40;;;;;;4998485;28;20112;-79
2021/03/11 06:38:48;;;;;;;5.38;4.40;;;7.50;98.60;;;;;;5002808;28;20044;-80
2021/03/11 06:41:14;;;;;;;7.13;4.43;;;7.50;98.50;;;;;;4985583;28;20033;-80
2021/03/11 06:43:54;;;;;;;6.30;3.83;;;7.50;98.60;;;;;;4985445;28;20176;-79
2021/03/11 06:46:24;;;;;;;3.28;2.15;;;7.60;98.60;;;;;;5020919;28;20477;-80
2021/03/11 06:48:49;;;;;;;6.80;4.30;;;7.60;98.50;;;;;;5001540;28;20065;-80
2021/03/11 06:51:20;;;;;;;8.13;4.65;;;7.60;98.50;;;;;;4980672;28;20054;-80
2021/03/11 06:53:58;;;;;;;9.18;4.03;;;7.70;98.40;;;;;;4983574;28;20474;-80
2021/03/11 06:56:25;;;;;;;5.30;2.00;;;7.70;98.40;;;;;;5006834;28;20083;-79
2021/03/11 06:59:01;;;;;;;7.90;4.70;;;7.70;98.40;;;;;;4984126;28;20083;-79
2021/03/11 07:01:27;;;;;;;7.05;3.88;;;7.80;98.50;;;;;;5005674;28;20026;-79
2021/03/11 07:03:53;;;;;;;6.57;3.88;;;7.80;98.40;;;;;;4981105;28;20042;-80
2021/03/11 07:06:34;;;;;;;7.50;2.78;;;7.80;98.50;;;;;;4982457;28;20030;-79
2021/03/11 07:09:00;;;;;;;3.88;2.28;;;7.90;98.30;;;;;;4992240;28;20040;-80
2021/03/11 07:11:26;;;;;;;5.63;3.42;;;7.90;98.20;;;;;;4986174;28;20034;-79
2021/03/11 07:13:52;;;;;;;4.82;3.25;;;7.90;98.20;;;;;;5001392;28;20233;-79
2021/03/11 07:16:22;;;;;;;5.35;3.28;;;8.00;98.20;;;;;;4999374;28;20040;-79
2021/03/11 07:18:48;;;;;;;7.90;4.15;;;8.00;98.30;;;;;;4991803;28;20037;-79
2021/03/11 07:21:14;;;;;;;4.82;3.13;;;8.00;98.20;;;;;;4984810;28;20112;-79
2021/03/11 07:23:58;;;;;;;4.60;3.03;;;8.10;98.40;;;;;;5003124;28;20116;-79
2021/03/11 07:26:23;;;;;;;6.60;3.53;;;8.00;98.10;;;;;;5003818;28;20088;-79
2021/03/11 07:28:49;;;;;;;5.45;2.95;;;8.10;98.30;;;;;;5000419;28;20077;-79
2021/03/11 07:31:14;;;;;;;7.00;4.22;;;8.10;98.30;;;;;;4983282;28;20152;-79
2021/03/11 07:33:40;;;;;;;3.65;1.75;;;8.10;98.40;;;;;;4987293;28;20473;-79
2021/03/11 07:36:08;;;;;;;2.72;2.03;;;8.20;98.40;;;;;;5003474;28;20045;-80
2021/03/11 07:38:34;;;;;;;5.88;3.78;;;8.20;98.50;;;;;;4992545;28;20041;-79
2021/03/11 07:41:06;;;;;;;4.65;2.88;;;8.20;98.70;;;;;;4980646;28;20030;-79
2021/03/11 07:43:32;;;;;;;10.70;3.70;;;8.20;98.80;;;;;;4984931;28;20095;-79
2021/03/11 07:46:05;;;;;;;5.45;2.88;;;8.20;98.80;;;;;;4987774;28;20035;-80
2021/03/11 07:48:31;;;;;;;5.38;3.47;;;8.20;98.80;;;;;;4999119;28;20508;-80
2021/03/11 07:50:57;;;;;;;4.82;2.80;;;8.30;98.90;;;;;;4984782;28;20114;-79
2021/03/11 07:53:24;;;;;;;7.85;4.00;;;8.30;98.80;;;;;;4997076;28;20397;-79
2021/03/11 07:55:50;;;;;;;6.13;2.83;;;8.30;99.00;;;;;;5014696;28;20045;-80
2021/03/11 07:58:17;;;;;;;16.02;4.00;;;8.30;98.90;;;;;;4999116;28;20030;-79
2021/03/11 08:00:43;;;;;;;11.23;4.55;;;8.40;99.10;;;;;;4990150;28;20033;-80
2021/03/11 08:03:25;;;;;;;4.68;2.75;;;8.50;99.00;;;;;;4994108;28;20044;-79
2021/03/11 08:05:50;;;;;;;3.97;2.30;;;8.50;98.90;;;;;;4994488;28;20060;-79
2021/03/11 08:08:20;;;;;;;4.72;3.22;;;8.60;98.80;;;;;;4984419;28;20061;-80
2021/03/11 08:10:53;;;;;;;4.10;3.03;;;8.70;99.00;;;;;;4984054;28;20128;-80
2021/03/11 08:13:28;;;;;;;3.40;1.77;;;8.80;98.80;;;;;;4975515;28;20036;-79
2021/03/11 08:15:54;;;;;;;5.43;3.33;;;8.80;98.70;;;;;;5012148;28;20075;-79
2021/03/11 08:18:36;;;;;;;6.78;4.50;;;8.90;98.60;;;;;;4987353;28;20033;-79
2021/03/11 08:21:06;;;;;;;3.85;3.33;;;9.00;98.70;;;;;;5024591;28;20048;-80
2021/03/11 08:23:35;;;;;;;4.47;2.50;;;9.10;98.60;;;;;;4986464;28;20473;-80
2021/03/11 08:26:01;;;;;;;3.55;2.63;;;9.10;98.70;;;;;;4983925;28;20084;-80
2021/03/11 08:28:30;;;;;;;3.70;2.33;;;9.10;98.50;;;;;;4993944;28;20089;-79
2021/03/11 08:31:03;;;;;;;7.90;3.72;;;9.20;98.40;;;;;;5021165;28;20091;-79
2021/03/11 08:33:29;;;;;;;3.10;2.35;;;9.20;98.20;;;;;;4996246;28;20659;-79
2021/03/11 08:35:57;;;;;;;5.40;2.92;;;9.20;98.40;;;;;;5018836;28;20230;-79
2021/03/11 08:38:23;;;;;;;5.85;2.80;;;9.20;98.50;;;;;;4985485;28;20033;-79
2021/03/11 08:41:06;;;;;;;3.55;1.95;;;9.30;98.60;;;;;;5042549;28;20048;-79
2021/03/11 08:43:37;;;;;;;4.45;2.63;;;9.30;98.50;;;;;;5002211;28;20040;-79
2021/03/11 08:46:09;;;;;;;6.07;2.72;;;9.30;98.40;;;;;;5016004;28;20053;-79
2021/03/11 08:48:39;;;;;;;4.88;2.78;;;9.30;98.40;;;;;;5000139;28;20041;-79
2021/03/11 08:51:05;;;;;;;5.32;2.60;;;9.30;98.40;;;;;;5014993;28;20033;-79
2021/03/11 08:53:37;;;;;;;5.85;2.80;;;9.30;98.20;;;;;;4998914;28;20184;-78
2021/03/11 08:56:18;;;;;;;3.38;2.13;;;9.30;98.30;;;;;;5021899;28;20033;-77
2021/03/11 08:58:53;;;;;;;3.72;2.00;;;9.40;98.30;;;;;;5015291;28;20041;-78
2021/03/11 09:01:37;;;;;;;5.63;1.70;;;9.50;98.30;;;;;;4997434;28;20057;-77
2021/03/11 09:04:07;;;;;;;6.15;1.33;;;9.50;98.20;;;;;;5019569;28;20036;-78
2021/03/11 09:06:55;;;;;;;5.60;2.05;;;9.60;97.90;;;;;;4983856;28;20468;-77
2021/03/11 09:09:49;;;;;;;6.82;1.60;;;9.70;97.70;;;;;;5013706;28;20437;-79
2021/03/11 09:12:35;;;;;;;5.90;2.20;;;9.80;97.50;;;;;;5012710;28;20104;-79
2021/03/11 09:15:01;;;;;;;6.05;1.40;;;9.90;96.90;;;;;;4997097;28;20091;-78
2021/03/11 09:17:28;;;;;;;6.40;1.42;;;10.00;96.10;;;;;;4995416;28;20521;-78
2021/03/11 09:20:00;;;;;;;3.50;1.15;;;10.10;96.00;;;;;;5029399;28;20509;-78
2021/03/11 09:22:33;;;;;;;3.60;0.82;;;10.20;95.80;;;;;;5009750;28;20026;-79
2021/03/11 09:25:13;;;;;;;7.28;1.45;;;10.20;95.60;;;;;;5009359;28;20486;-79
2021/03/11 09:27:53;;;;;;;3.65;1.42;;;10.30;95.60;;;;;;4997601;28;20041;-78
2021/03/11 09:30:20;;;;;;;4.28;1.17;;;10.20;95.40;;;;;;4981683;28;20022;-79
2021/03/11 09:32:46;;;;;;;6.22;1.80;;;10.30;95.70;;;;;;4986488;28;20029;-79
2021/03/11 09:35:12;;;;;;;4.78;0.73;;;10.20;95.50;;;;;;4976888;28;20363;-79
2021/03/11 09:38:03;;;;;;;8.80;1.80;;;10.20;95.30;;;;;;4994170;28;20045;-78
2021/03/11 09:40:35;;;;;;;6.10;1.50;;;10.10;95.50;;;;;;5028172;28;20071;-79
2021/03/11 09:43:04;;;;;;;8.75;2.40;;;10.10;95.50;;;;;;5029185;28;20160;-79
2021/03/11 09:45:34;;;;;;;7.95;1.60;;;10.10;95.40;;;;;;5027270;28;20048;-78
2021/03/11 09:48:23;;;;;;;3.38;0.88;;;10.10;94.80;;;;;;5016396;28;20041;-78
2021/03/11 09:51:09;;;;;;;7.53;1.02;;;10.10;94.80;;;;;;5001260;28;20448;-78
2021/03/11 09:53:57;;;;;;;2.55;0.82;;;10.00;94.60;;;;;;5001546;28;20116;-79
2021/03/11 09:56:42;;;;;;;4.22;0.95;;;10.00;94.40;;;;;;4998988;28;20520;-79
2021/03/11 09:59:08;;;;;;;2.25;0.80;;;10.00;94.20;;;;;;4989886;28;20493;-81
2021/03/11 10:01:44;;;;;;;11.43;1.92;;;10.10;94.30;;;;;;5026698;28;20535;-80
2021/03/11 10:04:29;;;;;;;9.02;1.92;;;10.20;94.30;;;;;;4989218;28;20037;-80
2021/03/11 10:06:55;;;;;;;5.13;1.33;;;10.40;94.00;;;;;;4997503;28;20490;-79
2021/03/11 10:09:21;;;;;;;8.63;1.60;;;10.60;93.80;;;;;;5009242;28;20041;-80
2021/03/11 10:11:54;;;;;;;5.82;1.08;;;10.80;93.40;;;;;;5000461;28;20393;-80
2021/03/11 10:14:23;;;;;;;4.00;0.85;;;11.10;93.20;;;;;;4997480;28;20034;-80
2021/03/11 10:16:50;;;;;;;9.80;1.20;;;11.20;92.80;;;;;;4994783;28;20157;-80
2021/03/11 10:19:17;;;;;;;9.15;2.30;;;11.50;92.30;;;;;;5013406;28;20138;-80
2021/03/11 10:21:57;;;;;;;11.18;1.65;;;11.60;92.30;;;;;;5000496;28;20393;-80
2021/03/11 10:24:49;;;;;;;6.13;1.40;;;11.70;92.20;;;;;;5002006;28;20104;-80
2021/03/11 10:27:33;;;;;;;11.80;1.52;;;11.80;92.20;;;;;;5020311;28;20041;-80
2021/03/11 10:30:13;;;;;;;12.20;1.88;;;12.10;92.00;;;;;;5015906;28;20029;-80
2021/03/11 10:32:40;;;;;;;9.50;2.00;;;12.40;91.20;;;;;;4989060;28;20033;-80
2021/03/11 10:35:10;;;;;;;9.27;1.95;;;12.40;91.00;;;;;;4998635;28;20532;-79
2021/03/11 10:37:40;;;;;;;8.05;1.40;;;12.60;89.90;;;;;;5006075;28;20087;-79
2021/03/11 10:40:33;;;;;;;7.68;1.48;;;12.90;89.20;;;;;;5020648;28;20037;-79
2021/03/11 10:42:58;;;;;;;8.40;1.90;;;12.90;88.90;;;;;;4994278;28;20021;-79
2021/03/11 10:45:26;;;;;;;7.88;1.65;;;12.90;89.20;;;;;;4968977;28;20032;-80
2021/03/11 10:47:58;;;;;;;13.98;2.40;;;13.00;88.80;;;;;;4998073;28;20393;-80
2021/03/11 10:50:24;;;;;;;7.13;1.30;;;13.20;88.00;;;;;;5024712;28;20048;-81
2021/03/11 10:52:51;;;;;;;5.93;1.50;;;13.60;86.10;;;;;;5010154;28;20025;-79
2021/03/11 10:55:29;;;;;;;7.93;1.67;;;13.60;85.80;;;;;;5001876;28;20494;-80
2021/03/11 10:57:54;;;;;;;5.50;0.98;;;13.60;84.50;;;;;;4998708;28;20045;-80
2021/03/11 11:00:28;;;;;;;5.57;1.80;;;13.80;83.70;;;;;;5012939;28;20021;-80
2021/03/11 11:02:58;;;;;;;8.07;2.85;;;13.90;82.30;;;;;;5010616;28;20029;-80
2021/03/11 11:05:24;;;;;;;9.77;1.35;;;13.70;81.10;;;;;;4999477;28;20030;-80
2021/03/11 11:07:49;;;;;;;8.52;1.63;;;13.80;80.30;;;;;;5000782;28;20098;-80
2021/03/11 11:10:17;;;;;;;17.45;2.75;;;13.60;79.40;;;;;;4985927;28;20040;-81
2021/03/11 11:12:42;;;;;;;10.20;2.00;;;13.60;80.60;;;;;;4984897;28;20489;-80
2021/03/11 11:15:08;;;;;;;9.02;2.70;;;13.40;79.00;;;;;;5009903;28;20037;-80
2021/03/11 11:17:34;;;;;;;9.50;2.05;;;13.50;78.10;;;;;;4983581;28;20069;-80
2021/03/11 11:19:59;;;;;;;5.40;1.70;;;13.50;78.40;;;;;;5000635;28;20032;-81
2021/03/11 11:22:25;;;;;;;5.57;1.88;;;13.60;77.70;;;;;;5028991;28;20394;-80
2021/03/11 11:24:51;;;;;;;16.20;2.50;;;13.60;77.00;;;;;;5011504;28;20426;-80
2021/03/11 11:27:17;;;;;;;6.38;1.00;;;13.40;76.20;;;;;;5014276;28;20116;-80
2021/03/11 11:29:42;;;;;;;10.73;2.80;;;13.50;75.80;;;;;;4983908;28;20072;-80
2021/03/11 11:32:08;;;;;;;7.82;1.60;;;13.50;76.40;;;;;;5012095;28;20030;-80
2021/03/11 11:34:33;;;;;;;6.38;1.00;;;13.70;76.20;;;;;;4999500;28;20382;-80
2021/03/11 11:36:59;;;;;;;9.27;2.03;;;13.70;74.50;;;;;;4979986;28;20061;-80
2021/03/11 11:39:24;;;;;;;4.78;1.13;;;13.80;73.50;;;;;;4985818;28;20090;-81
2021/03/11 11:41:50;;;;;;;7.00;1.45;;;13.80;72.20;;;;;;5001441;28;20061;-80
2021/03/11 11:44:16;;;;;;;9.50;2.60;;;14.00;75.10;;;;;;5007721;28;20037;-79
2021/03/11 11:46:43;;;;;;;9.20;1.83;;;13.80;71.80;;;;;;4987534;28;20030;-81
2021/03/11 11:49:09;;;;;;;13.98;2.95;;;13.80;71.80;;;;;;4997533;28;20048;-80
2021/03/11 11:51:34;;;;;;;3.45;0.88;;;13.70;70.10;;;;;;4979453;28;20076;-80
2021/03/11 11:54:00;;;;;;;13.18;1.48;;;13.90;71.10;;;;;;5006368;28;20759;-80
2021/03/11 11:56:26;;;;;;;11.35;2.53;;;14.00;71.70;;;;;;4998100;28;20415;-81
2021/03/11 11:58:51;;;;;;;10.13;1.40;;;14.20;70.40;;;;;;4977793;28;20037;-80
2021/03/11 12:01:17;;;;;;;7.72;2.10;;;14.30;70.20;;;;;;4981357;28;20488;-80
2021/03/11 12:03:43;;;;;;;14.00;2.00;;;14.40;69.10;;;;;;4983825;28;20584;-80
2021/03/11 12:06:08;;;;;;;15.93;2.97;;;14.50;68.10;;;;;;5024671;28;20026;-80
2021/03/11 12:08:34;;;;;;;11.25;1.77;;;14.50;67.80;;;;;;4977976;28;20041;-81
2021/03/11 12:10:59;;;;;;;8.60;1.92;;;14.70;67.60;;;;;;4987814;28;20112;-80
2021/03/11 12:13:25;;;;;;;19.33;2.28;;;14.70;67.60;;;;;;4979454;28;20030;-80
2021/03/11 12:15:50;;;;;;;8.23;1.63;;;14.80;67.20;;;;;;4983775;28;20037;-80
2021/03/11 12:18:16;;;;;;;3.78;1.20;;;14.70;67.50;;;;;;4999715;28;20071;-80
2021/03/11 12:20:42;;;;;;;10.40;1.65;;;14.80;67.70;;;;;;4972754;28;20030;-80
2021/03/11 12:23:07;;;;;;;10.68;1.67;;;14.80;67.10;;;;;;4978216;28;20041;-80
2021/03/11 12:25:33;;;;;;;10.48;1.50;;;14.80;66.40;;;;;;4987143;28;20083;-81
2021/03/11 12:27:59;;;;;;;7.63;2.15;;;15.10;66.30;;;;;;4992061;28;20493;-80
2021/03/11 12:30:25;;;;;;;14.40;2.90;;;14.80;65.50;;;;;;4980027;28;20033;-80
2021/03/11 12:32:50;;;;;;;4.05;1.30;;;14.90;64.30;;;;;;4994174;28;20064;-80
2021/03/11 12:35:16;;;;;;;10.25;1.60;;;14.90;65.80;;;;;;4982217;28;20029;-80
2021/03/11 12:37:42;;;;;;;10.73;2.40;;;15.00;65.20;;;;;;4991938;28;20034;-80
2021/03/11 12:40:08;;;;;;;8.07;1.35;;;14.80;65.00;;;;;;5001150;28;20061;-80
2021/03/11 12:42:34;;;;;;;6.85;1.73;;;14.60;65.30;;;;;;5000596;28;20385;-80
2021/03/11 12:44:59;;;;;;;7.05;1.63;;;14.70;65.00;;;;;;5002882;28;20029;-80
2021/03/11 12:47:25;;;;;;;7.40;1.80;;;14.70;64.90;;;;;;5019423;28;20326;-79
2021/03/11 12:49:50;;;;;;;8.82;2.78;;;14.80;65.70;;;;;;5009237;28;20397;-80
2021/03/11 12:52:16;;;;;;;8.48;1.30;;;14.70;63.60;;;;;;5021925;28;20052;-80
2021/03/11 12:54:41;;;;;;;10.82;2.78;;;14.80;64.20;;;;;;4994808;28;20033;-80
2021/03/11 12:57:07;;;;;;;8.98;1.95;;;14.70;62.70;;;;;;5003577;28;20033;-80